Unbenanntes Dokument
Flugplatz Bielefeld Platzwetter

 

Aktuelles Platzwetter am Flugplatz Bielefeld EDLI

20.08.18 ,22:58 Uhr

METAR EDLI 202257Z VRB01KT 9999 ///038 ///067 18/17 Q1021

 

Windwerte

 

Wolkenuntergrenzen

Wind aktuell:030 ° mit 1 kt
Wind 10 min Extrem:
330 ° bis 60 ° mit 1 kt bis 3 kt
Seitenwindkomponente: -1.1 kt
Wolkengrenze 1: 3800 ft
Wolkengrenze 2:
Wolkengrenze 3:

Webcam

Temperatur

       

Sichtweite:

20.000 Meter

18.3 °C
Taupunkt: 17.7 °C
Luftfeuchtigkeit: 96 %

Luftdruck:

QNH: 1021 hPa (30.15 in Hg)
QFE: 1005 hPa (29.68 in Hg)

Diese Daten werden automatisch ermittelt bzw. übertragen und sind nicht geprüft. Für die Richtigkeit wird daher keine Gewähr übernommen. Sie ersetzen im übrigen nicht die Flugwetterberatung. Alle Zeitangaben beziehen sich auf UTC. Die Seite wird einmal die Minute aktualisiert! Sollten Sie ein ältere Seite haben, so drücken Sie bitte auf den Reload Button Ihres Browsers!